sensor_id;sensor_type;location;lat;lon;timestamp;temperature;humidity
42147;DHT22;27815;43.410;11.852;2023-07-29T00:00:06;23.60;61.70
42147;DHT22;27815;43.410;11.852;2023-07-29T00:04:14;23.60;61.60
42147;DHT22;27815;43.410;11.852;2023-07-29T00:08:17;23.70;61.40
42147;DHT22;27815;43.410;11.852;2023-07-29T00:12:20;23.60;61.50
42147;DHT22;27815;43.410;11.852;2023-07-29T00:16:23;23.40;61.80
42147;DHT22;27815;43.410;11.852;2023-07-29T00:20:26;23.30;61.90
42147;DHT22;27815;43.410;11.852;2023-07-29T00:24:29;23.30;61.90
42147;DHT22;27815;43.410;11.852;2023-07-29T00:28:32;23.10;62.10
42147;DHT22;27815;43.410;11.852;2023-07-29T00:32:40;23.10;62.20
42147;DHT22;27815;43.410;11.852;2023-07-29T00:36:45;23.10;62.20
42147;DHT22;27815;43.410;11.852;2023-07-29T00:40:58;22.90;62.40
42147;DHT22;27815;43.410;11.852;2023-07-29T00:45:06;22.80;62.70
42147;DHT22;27815;43.410;11.852;2023-07-29T00:49:11;22.60;63.40
42147;DHT22;27815;43.410;11.852;2023-07-29T00:53:17;22.60;63.60
42147;DHT22;27815;43.410;11.852;2023-07-29T00:57:33;22.70;63.60
42147;DHT22;27815;43.410;11.852;2023-07-29T01:01:49;22.70;63.90
42147;DHT22;27815;43.410;11.852;2023-07-29T01:06:17;22.80;63.50
42147;DHT22;27815;43.410;11.852;2023-07-29T01:14:46;22.40;64.50
42147;DHT22;27815;43.410;11.852;2023-07-29T01:18:54;22.30;64.70
42147;DHT22;27815;43.410;11.852;2023-07-29T01:23:00;22.30;64.40
42147;DHT22;27815;43.410;11.852;2023-07-29T01:27:05;22.30;64.50
42147;DHT22;27815;43.410;11.852;2023-07-29T01:31:32;22.30;64.50
42147;DHT22;27815;43.410;11.852;2023-07-29T01:35:43;22.20;64.70
42147;DHT22;27815;43.410;11.852;2023-07-29T01:39:50;22.10;64.70
42147;DHT22;27815;43.410;11.852;2023-07-29T01:43:55;22.10;64.70
42147;DHT22;27815;43.410;11.852;2023-07-29T01:48:00;22.10;64.80
42147;DHT22;27815;43.410;11.852;2023-07-29T01:52:04;22.00;64.80
42147;DHT22;27815;43.410;11.852;2023-07-29T01:56:08;22.00;65.00
42147;DHT22;27815;43.410;11.852;2023-07-29T02:00:16;22.00;65.20
42147;DHT22;27815;43.410;11.852;2023-07-29T02:04:21;22.00;65.20
42147;DHT22;27815;43.410;11.852;2023-07-29T02:08:26;22.00;65.20
42147;DHT22;27815;43.410;11.852;2023-07-29T02:12:29;21.90;65.60
42147;DHT22;27815;43.410;11.852;2023-07-29T02:16:33;21.80;65.70
42147;DHT22;27815;43.410;11.852;2023-07-29T02:20:38;21.90;65.60
42147;DHT22;27815;43.410;11.852;2023-07-29T02:24:48;21.90;65.50
42147;DHT22;27815;43.410;11.852;2023-07-29T02:28:53;21.80;65.60
42147;DHT22;27815;43.410;11.852;2023-07-29T02:32:57;21.80;65.70
42147;DHT22;27815;43.410;11.852;2023-07-29T02:37:01;21.80;65.80
42147;DHT22;27815;43.410;11.852;2023-07-29T02:41:06;21.80;65.80
42147;DHT22;27815;43.410;11.852;2023-07-29T02:45:12;21.50;66.20
42147;DHT22;27815;43.410;11.852;2023-07-29T02:49:15;21.30;65.70
42147;DHT22;27815;43.410;11.852;2023-07-29T02:53:19;21.20;66.60
42147;DHT22;27815;43.410;11.852;2023-07-29T02:57:24;21.00;67.30
42147;DHT22;27815;43.410;11.852;2023-07-29T03:01:44;21.00;67.50
42147;DHT22;27815;43.410;11.852;2023-07-29T03:06:05;21.00;67.80
42147;DHT22;27815;43.410;11.852;2023-07-29T03:10:10;21.00;67.30
42147;DHT22;27815;43.410;11.852;2023-07-29T03:14:14;21.00;67.30
42147;DHT22;27815;43.410;11.852;2023-07-29T03:18:18;21.00;67.30
42147;DHT22;27815;43.410;11.852;2023-07-29T03:22:26;20.90;67.40
42147;DHT22;27815;43.410;11.852;2023-07-29T03:26:37;20.90;67.40
42147;DHT22;27815;43.410;11.852;2023-07-29T03:30:49;20.80;67.70
42147;DHT22;27815;43.410;11.852;2023-07-29T03:35:06;20.80;67.70
42147;DHT22;27815;43.410;11.852;2023-07-29T03:39:10;20.80;68.00
42147;DHT22;27815;43.410;11.852;2023-07-29T03:43:13;20.80;67.60
42147;DHT22;27815;43.410;11.852;2023-07-29T03:47:19;20.80;67.70
42147;DHT22;27815;43.410;11.852;2023-07-29T03:51:28;20.90;67.50
42147;DHT22;27815;43.410;11.852;2023-07-29T03:55:32;20.90;67.60
42147;DHT22;27815;43.410;11.852;2023-07-29T03:59:49;20.80;67.70
42147;DHT22;27815;43.410;11.852;2023-07-29T04:03:53;20.80;67.70
42147;DHT22;27815;43.410;11.852;2023-07-29T04:07:57;20.80;67.70
42147;DHT22;27815;43.410;11.852;2023-07-29T04:12:15;20.80;67.80
42147;DHT22;27815;43.410;11.852;2023-07-29T04:16:27;20.80;67.80
42147;DHT22;27815;43.410;11.852;2023-07-29T04:20:31;20.70;67.90
42147;DHT22;27815;43.410;11.852;2023-07-29T04:24:50;20.80;67.90
42147;DHT22;27815;43.410;11.852;2023-07-29T04:29:01;20.80;68.00
42147;DHT22;27815;43.410;11.852;2023-07-29T04:33:05;20.80;68.00
42147;DHT22;27815;43.410;11.852;2023-07-29T04:37:13;20.90;68.00
42147;DHT22;27815;43.410;11.852;2023-07-29T04:41:18;21.00;68.00
42147;DHT22;27815;43.410;11.852;2023-07-29T04:45:41;21.00;68.10
42147;DHT22;27815;43.410;11.852;2023-07-29T04:49:58;21.10;68.10
42147;DHT22;27815;43.410;11.852;2023-07-29T04:54:06;21.10;68.10
42147;DHT22;27815;43.410;11.852;2023-07-29T04:58:10;21.10;68.10
42147;DHT22;27815;43.410;11.852;2023-07-29T05:02:26;21.20;68.20
42147;DHT22;27815;43.410;11.852;2023-07-29T05:06:43;21.20;68.30
42147;DHT22;27815;43.410;11.852;2023-07-29T05:11:00;21.20;68.40
42147;DHT22;27815;43.410;11.852;2023-07-29T05:15:17;21.10;68.80
42147;DHT22;27815;43.410;11.852;2023-07-29T05:19:35;21.20;68.80
42147;DHT22;27815;43.410;11.852;2023-07-29T05:23:52;21.30;68.80
42147;DHT22;27815;43.410;11.852;2023-07-29T05:28:12;21.30;68.90
42147;DHT22;27815;43.410;11.852;2023-07-29T05:32:30;21.50;69.00
42147;DHT22;27815;43.410;11.852;2023-07-29T05:36:48;21.60;68.60
42147;DHT22;27815;43.410;11.852;2023-07-29T05:41:06;21.80;68.40
42147;DHT22;27815;43.410;11.852;2023-07-29T05:45:24;22.00;68.40
42147;DHT22;27815;43.410;11.852;2023-07-29T05:49:30;22.20;68.30
42147;DHT22;27815;43.410;11.852;2023-07-29T05:53:47;22.40;68.00
42147;DHT22;27815;43.410;11.852;2023-07-29T05:57:51;22.60;67.80
42147;DHT22;27815;43.410;11.852;2023-07-29T06:02:08;22.80;67.60
42147;DHT22;27815;43.410;11.852;2023-07-29T06:06:25;22.90;67.30
42147;DHT22;27815;43.410;11.852;2023-07-29T06:10:30;22.80;67.70
42147;DHT22;27815;43.410;11.852;2023-07-29T06:14:36;22.90;67.70
42147;DHT22;27815;43.410;11.852;2023-07-29T06:18:53;22.90;67.50
42147;DHT22;27815;43.410;11.852;2023-07-29T06:23:09;22.80;67.90
42147;DHT22;27815;43.410;11.852;2023-07-29T06:27:32;22.90;68.20
42147;DHT22;27815;43.410;11.852;2023-07-29T06:31:51;23.10;68.00
42147;DHT22;27815;43.410;11.852;2023-07-29T06:36:11;23.30;67.80
42147;DHT22;27815;43.410;11.852;2023-07-29T06:40:28;23.70;67.30
42147;DHT22;27815;43.410;11.852;2023-07-29T06:44:45;24.10;66.50
42147;DHT22;27815;43.410;11.852;2023-07-29T06:48:51;24.50;65.80
42147;DHT22;27815;43.410;11.852;2023-07-29T06:53:09;24.80;65.30
42147;DHT22;27815;43.410;11.852;2023-07-29T06:57:28;24.80;65.40
42147;DHT22;27815;43.410;11.852;2023-07-29T07:01:46;25.00;65.10
42147;DHT22;27815;43.410;11.852;2023-07-29T07:11:37;25.30;64.70
42147;DHT22;27815;43.410;11.852;2023-07-29T07:21:40;26.10;63.40
42147;DHT22;27815;43.410;11.852;2023-07-29T08:50:48;28.40;54.60
42147;DHT22;27815;43.410;11.852;2023-07-29T08:55:40;28.70;54.30
42147;DHT22;27815;43.410;11.852;2023-07-29T11:04:55;31.10;47.30
42147;DHT22;27815;43.410;11.852;2023-07-29T11:09:42;31.50;46.30
42147;DHT22;27815;43.410;11.852;2023-07-29T11:14:09;31.80;45.70
42147;DHT22;27815;43.410;11.852;2023-07-29T11:18:31;31.50;45.90
42147;DHT22;27815;43.410;11.852;2023-07-29T11:22:50;31.40;46.30
42147;DHT22;27815;43.410;11.852;2023-07-29T11:27:11;31.50;46.20
42147;DHT22;27815;43.410;11.852;2023-07-29T11:31:39;31.50;46.10
42147;DHT22;27815;43.410;11.852;2023-07-29T11:35:48;31.40;46.00
42147;DHT22;27815;43.410;11.852;2023-07-29T11:40:27;31.40;45.70
42147;DHT22;27815;43.410;11.852;2023-07-29T11:45:19;31.30;45.40
42147;DHT22;27815;43.410;11.852;2023-07-29T11:49:49;31.30;45.50
42147;DHT22;27815;43.410;11.852;2023-07-29T11:54:13;31.30;45.60
42147;DHT22;27815;43.410;11.852;2023-07-29T11:59:03;31.00;46.00
42147;DHT22;27815;43.410;11.852;2023-07-29T12:03:36;31.00;46.30
42147;DHT22;27815;43.410;11.852;2023-07-29T12:08:07;31.20;45.60
42147;DHT22;27815;43.410;11.852;2023-07-29T12:12:13;31.50;45.50
42147;DHT22;27815;43.410;11.852;2023-07-29T12:16:55;31.80;44.20
42147;DHT22;27815;43.410;11.852;2023-07-29T12:21:14;32.00;43.90
42147;DHT22;27815;43.410;11.852;2023-07-29T12:25:35;32.30;43.40
42147;DHT22;27815;43.410;11.852;2023-07-29T12:29:43;32.50;43.00
42147;DHT22;27815;43.410;11.852;2023-07-29T12:34:20;32.50;42.70
42147;DHT22;27815;43.410;11.852;2023-07-29T12:38:42;32.50;42.50
42147;DHT22;27815;43.410;11.852;2023-07-29T12:43:00;32.70;42.30
42147;DHT22;27815;43.410;11.852;2023-07-29T12:47:18;32.70;42.30
42147;DHT22;27815;43.410;11.852;2023-07-29T12:51:36;32.80;42.00
42147;DHT22;27815;43.410;11.852;2023-07-29T12:56:14;32.90;41.70
42147;DHT22;27815;43.410;11.852;2023-07-29T13:01:43;33.00;41.50
42147;DHT22;27815;43.410;11.852;2023-07-29T13:11:57;33.00;41.60
42147;DHT22;27815;43.410;11.852;2023-07-29T13:16:30;32.90;41.50
42147;DHT22;27815;43.410;11.852;2023-07-29T13:26:22;32.50;41.90
42147;DHT22;27815;43.410;11.852;2023-07-29T13:31:25;32.80;41.70
42147;DHT22;27815;43.410;11.852;2023-07-29T13:53:56;34.10;38.00
42147;DHT22;27815;43.410;11.852;2023-07-29T13:59:00;33.90;38.70
42147;DHT22;27815;43.410;11.852;2023-07-29T14:08:43;34.20;38.90
42147;DHT22;27815;43.410;11.852;2023-07-29T14:14:02;34.20;39.20
42147;DHT22;27815;43.410;11.852;2023-07-29T14:18:54;34.20;38.90
42147;DHT22;27815;43.410;11.852;2023-07-29T14:35:20;34.20;39.00
42147;DHT22;27815;43.410;11.852;2023-07-29T14:39:23;34.80;36.50
42147;DHT22;27815;43.410;11.852;2023-07-29T14:43:27;34.50;37.20
42147;DHT22;27815;43.410;11.852;2023-07-29T14:47:30;34.40;37.60
42147;DHT22;27815;43.410;11.852;2023-07-29T14:51:40;34.30;38.00
42147;DHT22;27815;43.410;11.852;2023-07-29T14:55:44;34.10;38.30
42147;DHT22;27815;43.410;11.852;2023-07-29T14:59:47;34.20;38.20
42147;DHT22;27815;43.410;11.852;2023-07-29T15:03:51;34.30;38.20
42147;DHT22;27815;43.410;11.852;2023-07-29T15:07:57;34.20;38.00
42147;DHT22;27815;43.410;11.852;2023-07-29T15:12:01;34.00;38.10
42147;DHT22;27815;43.410;11.852;2023-07-29T15:16:05;33.90;38.50
42147;DHT22;27815;43.410;11.852;2023-07-29T15:20:09;33.70;38.80
42147;DHT22;27815;43.410;11.852;2023-07-29T15:24:16;33.50;38.90
42147;DHT22;27815;43.410;11.852;2023-07-29T15:28:20;33.50;38.80
42147;DHT22;27815;43.410;11.852;2023-07-29T15:32:24;33.60;38.60
42147;DHT22;27815;43.410;11.852;2023-07-29T15:36:29;33.60;38.70
42147;DHT22;27815;43.410;11.852;2023-07-29T15:40:32;33.70;38.40
42147;DHT22;27815;43.410;11.852;2023-07-29T15:44:40;33.30;38.70
42147;DHT22;27815;43.410;11.852;2023-07-29T15:48:45;33.00;39.40
42147;DHT22;27815;43.410;11.852;2023-07-29T15:52:50;32.80;40.00
42147;DHT22;27815;43.410;11.852;2023-07-29T15:56:55;32.90;40.20
42147;DHT22;27815;43.410;11.852;2023-07-29T16:00:58;33.50;39.10
42147;DHT22;27815;43.410;11.852;2023-07-29T16:05:08;34.20;38.00
42147;DHT22;27815;43.410;11.852;2023-07-29T16:09:12;33.70;38.00
42147;DHT22;27815;43.410;11.852;2023-07-29T16:13:15;33.30;38.90
42147;DHT22;27815;43.410;11.852;2023-07-29T16:17:24;33.10;39.30
42147;DHT22;27815;43.410;11.852;2023-07-29T16:21:32;33.40;39.10
42147;DHT22;27815;43.410;11.852;2023-07-29T16:25:36;34.40;38.00
42147;DHT22;27815;43.410;11.852;2023-07-29T16:29:39;35.70;36.40
42147;DHT22;27815;43.410;11.852;2023-07-29T16:33:43;36.90;34.90
42147;DHT22;27815;43.410;11.852;2023-07-29T16:37:46;37.00;34.30
42147;DHT22;27815;43.410;11.852;2023-07-29T16:41:49;36.80;34.00
42147;DHT22;27815;43.410;11.852;2023-07-29T16:46:07;36.90;33.70
42147;DHT22;27815;43.410;11.852;2023-07-29T16:50:11;37.30;33.20
42147;DHT22;27815;43.410;11.852;2023-07-29T16:54:14;37.50;32.80
42147;DHT22;27815;43.410;11.852;2023-07-29T16:58:23;37.80;32.50
42147;DHT22;27815;43.410;11.852;2023-07-29T17:02:28;38.30;31.70
42147;DHT22;27815;43.410;11.852;2023-07-29T17:06:33;38.20;31.00
42147;DHT22;27815;43.410;11.852;2023-07-29T17:10:38;38.00;30.50
42147;DHT22;27815;43.410;11.852;2023-07-29T17:14:41;37.70;30.70
42147;DHT22;27815;43.410;11.852;2023-07-29T17:18:44;37.90;30.60
42147;DHT22;27815;43.410;11.852;2023-07-29T17:22:47;38.00;30.40
42147;DHT22;27815;43.410;11.852;2023-07-29T17:26:50;38.20;30.20
42147;DHT22;27815;43.410;11.852;2023-07-29T17:30:54;38.20;30.00
42147;DHT22;27815;43.410;11.852;2023-07-29T17:34:57;38.10;29.90
42147;DHT22;27815;43.410;11.852;2023-07-29T17:39:06;37.90;29.90
42147;DHT22;27815;43.410;11.852;2023-07-29T17:43:09;38.00;29.80
42147;DHT22;27815;43.410;11.852;2023-07-29T17:47:22;37.80;29.90
42147;DHT22;27815;43.410;11.852;2023-07-29T17:51:40;37.20;30.40
42147;DHT22;27815;43.410;11.852;2023-07-29T17:55:43;36.00;31.50
42147;DHT22;27815;43.410;11.852;2023-07-29T17:59:59;35.10;32.40
42147;DHT22;27815;43.410;11.852;2023-07-29T18:04:06;34.20;33.40
42147;DHT22;27815;43.410;11.852;2023-07-29T18:08:09;33.50;34.30
42147;DHT22;27815;43.410;11.852;2023-07-29T18:12:11;33.00;35.00
42147;DHT22;27815;43.410;11.852;2023-07-29T18:16:14;32.70;35.60
42147;DHT22;27815;43.410;11.852;2023-07-29T18:20:24;32.40;36.10
42147;DHT22;27815;43.410;11.852;2023-07-29T18:24:31;32.00;36.60
42147;DHT22;27815;43.410;11.852;2023-07-29T18:28:34;31.70;37.20
42147;DHT22;27815;43.410;11.852;2023-07-29T18:32:37;31.50;37.80
42147;DHT22;27815;43.410;11.852;2023-07-29T18:36:55;31.30;38.20
42147;DHT22;27815;43.410;11.852;2023-07-29T18:40:57;31.00;38.60
42147;DHT22;27815;43.410;11.852;2023-07-29T18:45:00;30.80;39.10
42147;DHT22;27815;43.410;11.852;2023-07-29T18:49:03;30.50;39.70
42147;DHT22;27815;43.410;11.852;2023-07-29T18:53:11;30.20;40.10
42147;DHT22;27815;43.410;11.852;2023-07-29T18:57:14;30.00;40.60
42147;DHT22;27815;43.410;11.852;2023-07-29T19:01:17;29.70;41.00
42147;DHT22;27815;43.410;11.852;2023-07-29T19:05:20;29.50;41.60
42147;DHT22;27815;43.410;11.852;2023-07-29T19:09:23;29.20;42.10
42147;DHT22;27815;43.410;11.852;2023-07-29T19:13:28;29.00;42.50
42147;DHT22;27815;43.410;11.852;2023-07-29T19:17:31;28.70;43.20
42147;DHT22;27815;43.410;11.852;2023-07-29T19:21:35;28.50;43.50
42147;DHT22;27815;43.410;11.852;2023-07-29T19:25:47;28.30;43.80
42147;DHT22;27815;43.410;11.852;2023-07-29T19:29:52;28.10;44.30
42147;DHT22;27815;43.410;11.852;2023-07-29T19:33:56;27.90;44.60
42147;DHT22;27815;43.410;11.852;2023-07-29T19:38:00;27.70;44.90
42147;DHT22;27815;43.410;11.852;2023-07-29T19:42:03;27.60;45.30
42147;DHT22;27815;43.410;11.852;2023-07-29T19:46:06;27.50;45.70
42147;DHT22;27815;43.410;11.852;2023-07-29T19:50:13;27.40;46.00
42147;DHT22;27815;43.410;11.852;2023-07-29T19:54:16;27.30;46.40
42147;DHT22;27815;43.410;11.852;2023-07-29T19:58:19;27.20;46.70
42147;DHT22;27815;43.410;11.852;2023-07-29T20:02:22;27.00;47.20
42147;DHT22;27815;43.410;11.852;2023-07-29T20:06:26;26.80;47.90
42147;DHT22;27815;43.410;11.852;2023-07-29T20:10:31;26.70;48.20
42147;DHT22;27815;43.410;11.852;2023-07-29T20:14:36;26.60;48.60
42147;DHT22;27815;43.410;11.852;2023-07-29T20:18:41;26.50;48.80
42147;DHT22;27815;43.410;11.852;2023-07-29T20:22:46;26.50;49.00
42147;DHT22;27815;43.410;11.852;2023-07-29T20:26:51;26.40;49.00
42147;DHT22;27815;43.410;11.852;2023-07-29T20:30:58;26.30;49.40
42147;DHT22;27815;43.410;11.852;2023-07-29T20:35:00;26.20;50.00
42147;DHT22;27815;43.410;11.852;2023-07-29T20:39:07;26.10;50.00
42147;DHT22;27815;43.410;11.852;2023-07-29T20:43:41;26.00;50.10
42147;DHT22;27815;43.410;11.852;2023-07-29T20:47:50;26.00;50.20
42147;DHT22;27815;43.410;11.852;2023-07-29T20:51:55;25.90;50.30
42147;DHT22;27815;43.410;11.852;2023-07-29T20:56:02;25.90;50.30
42147;DHT22;27815;43.410;11.852;2023-07-29T21:00:05;25.80;50.40
42147;DHT22;27815;43.410;11.852;2023-07-29T21:04:11;25.80;50.50
42147;DHT22;27815;43.410;11.852;2023-07-29T21:08:15;25.80;50.50
42147;DHT22;27815;43.410;11.852;2023-07-29T21:12:18;25.90;50.40
42147;DHT22;27815;43.410;11.852;2023-07-29T21:16:21;26.00;50.30
42147;DHT22;27815;43.410;11.852;2023-07-29T21:20:24;26.00;50.20
42147;DHT22;27815;43.410;11.852;2023-07-29T21:24:27;26.00;50.10
42147;DHT22;27815;43.410;11.852;2023-07-29T21:28:30;26.10;50.20
42147;DHT22;27815;43.410;11.852;2023-07-29T21:32:33;26.00;50.10
42147;DHT22;27815;43.410;11.852;2023-07-29T21:36:36;26.00;50.10
42147;DHT22;27815;43.410;11.852;2023-07-29T21:40:39;25.90;50.10
42147;DHT22;27815;43.410;11.852;2023-07-29T21:44:43;25.90;50.20
42147;DHT22;27815;43.410;11.852;2023-07-29T21:48:46;25.90;50.20
42147;DHT22;27815;43.410;11.852;2023-07-29T21:52:49;25.90;50.30
42147;DHT22;27815;43.410;11.852;2023-07-29T21:56:52;25.80;50.50
42147;DHT22;27815;43.410;11.852;2023-07-29T22:00:55;25.70;50.60
42147;DHT22;27815;43.410;11.852;2023-07-29T22:04:58;25.60;50.80
42147;DHT22;27815;43.410;11.852;2023-07-29T22:09:01;25.50;51.00
42147;DHT22;27815;43.410;11.852;2023-07-29T22:13:06;25.40;51.20
42147;DHT22;27815;43.410;11.852;2023-07-29T22:17:09;25.30;51.40
42147;DHT22;27815;43.410;11.852;2023-07-29T22:21:12;25.10;51.80
42147;DHT22;27815;43.410;11.852;2023-07-29T22:25:15;25.00;52.10
42147;DHT22;27815;43.410;11.852;2023-07-29T22:29:18;24.90;52.30
42147;DHT22;27815;43.410;11.852;2023-07-29T22:33:22;24.70;52.60
42147;DHT22;27815;43.410;11.852;2023-07-29T22:37:25;24.60;52.80
42147;DHT22;27815;43.410;11.852;2023-07-29T22:41:28;24.60;52.90
42147;DHT22;27815;43.410;11.852;2023-07-29T22:45:31;24.50;53.10
42147;DHT22;27815;43.410;11.852;2023-07-29T22:49:34;24.50;53.20
42147;DHT22;27815;43.410;11.852;2023-07-29T22:53:37;24.40;53.30
42147;DHT22;27815;43.410;11.852;2023-07-29T22:57:40;24.30;53.60
42147;DHT22;27815;43.410;11.852;2023-07-29T23:01:43;24.30;53.60
42147;DHT22;27815;43.410;11.852;2023-07-29T23:05:47;24.30;53.70
42147;DHT22;27815;43.410;11.852;2023-07-29T23:09:50;24.30;53.80
42147;DHT22;27815;43.410;11.852;2023-07-29T23:13:52;24.20;53.90
42147;DHT22;27815;43.410;11.852;2023-07-29T23:17:55;24.30;54.00
42147;DHT22;27815;43.410;11.852;2023-07-29T23:21:58;24.20;54.20
42147;DHT22;27815;43.410;11.852;2023-07-29T23:26:01;24.20;54.30
42147;DHT22;27815;43.410;11.852;2023-07-29T23:30:04;24.00;54.50
42147;DHT22;27815;43.410;11.852;2023-07-29T23:34:09;24.00;54.80
42147;DHT22;27815;43.410;11.852;2023-07-29T23:38:12;24.00;55.00
42147;DHT22;27815;43.410;11.852;2023-07-29T23:42:15;23.80;55.10
42147;DHT22;27815;43.410;11.852;2023-07-29T23:46:17;23.80;55.30
42147;DHT22;27815;43.410;11.852;2023-07-29T23:50:21;23.80;55.40
42147;DHT22;27815;43.410;11.852;2023-07-29T23:54:26;23.70;55.50
42147;DHT22;27815;43.410;11.852;2023-07-29T23:58:29;23.70;55.50
